Station Historical Data
Daily Summary for May 5, 2012 Units:  Both    English   Metric
« Previous Day
Next Day »
Daily Weekly Monthly Yearly Custom
  High: Low: Average:
Temperature: 85.8 °F /  29.9 °C 65.0 °F /  18.3 °C 74.6 °F /  23.7 °C
Dew Point: 73.9 °F /  23.3 °C 63.0 °F /  17.2 °C 68.7 °F /  20.4 °C
Humidity: 94% 63% 83%
Wind Speed: 9.0mph /  14.5km/h - 2.1mph /  3.4km/h
Wind Gust: 12.0mph /  19.3km/h - -
Wind- - SSE
Pressure: 30.00 in /  1015.8 hPa 29.85 in /  1010.7 hPa -
Precipitation: 0.00 in /  0 mm    
Historical Graphs
 
 
Tabular Data for May 5, 2012
Time Temperature Dew Point Pressure Wind Wind Speed Wind Gust Humidity Rainfall Rate (Hourly) Conditions
00:00 70.8 °F /  21.6 °C 68.1 °F /  20.1 °C 29.93in /  1013.4hPa South 2.0mph /  3.2km/h 4.0mph /  6.4km/h 91% 0.00in /  0mm
00:01 70.8 °F /  21.6 °C 68.1 °F /  20.1 °C 29.93in /  1013.4hPa SW 2.0mph /  3.2km/h 4.0mph /  6.4km/h 91% 0.00in /  0mm
00:03 70.8 °F /  21.6 °C 68.1 °F /  20.1 °C 29.93in /  1013.4hPa SSW 2.0mph /  3.2km/h 4.0mph /  6.4km/h 91% 0.00in /  0mm
00:08 70.7 °F /  21.5 °C 67.9 °F /  19.9 °C 29.93in /  1013.4hPa SSW 2.0mph /  3.2km/h 2.0mph /  3.2km/h 91% 0.00in /  0mm
00:13 70.6 °F /  21.4 °C 68.2 °F /  20.1 °C 29.92in /  1013.1hPa SSE 2.0mph /  3.2km/h 3.0mph /  4.8km/h 92% 0.00in /  0mm
00:18 70.6 °F /  21.4 °C 67.8 °F /  19.9 °C 29.93in /  1013.4hPa SSW 3.0mph /  4.8km/h 4.0mph /  6.4km/h 91% 0.00in /  0mm
00:23 70.5 °F /  21.4 °C 68.1 °F /  20.1 °C 29.92in /  1013.1hPa SSW 2.0mph /  3.2km/h 3.0mph /  4.8km/h 92% 0.00in /  0mm
00:28 70.4 °F /  21.3 °C 68.0 °F /  20 °C 29.92in /  1013.1hPa South 2.0mph /  3.2km/h 3.0mph /  4.8km/h 92% 0.00in /  0mm
00:33 70.3 °F /  21.3 °C 67.9 °F /  19.9 °C 29.93in /  1013.4hPa South 2.0mph /  3.2km/h 3.0mph /  4.8km/h 92% 0.00in /  0mm
00:38 70.1 °F /  21.2 °C 67.7 °F /  19.8 °C 29.93in /  1013.4hPa SSW 1.0mph /  1.6km/h 2.0mph /  3.2km/h 92% 0.00in /  0mm
00:43 70.0 °F /  21.1 °C 67.6 °F /  19.8 °C 29.93in /  1013.4hPa Calm   1.0mph /  1.6km/h 92% 0.00in /  0mm
00:48 69.8 °F /  21 °C 67.4 °F /  19.7 °C 29.93in /  1013.4hPa South 1.0mph /  1.6km/h 1.0mph /  1.6km/h 92% 0.00in /  0mm
00:53 69.7 °F /  20.9 °C 67.3 °F /  19.6 °C 29.93in /  1013.4hPa Calm   1.0mph /  1.6km/h 92% 0.00in /  0mm
00:58 69.6 °F /  20.9 °C 67.2 °F /  19.6 °C 29.93in /  1013.4hPa Calm   1.0mph /  1.6km/h 92% 0.00in /  0mm
01:03 69.4 °F /  20.8 °C 67.0 °F /  19.4 °C 29.93in /  1013.4hPa Calm   1.0mph /  1.6km/h 92% 0.00in /  0mm
01:08 69.2 °F /  20.7 °C 66.8 °F /  19.3 °C 29.93in /  1013.4hPa Calm     92% 0.00in /  0mm
01:14 69.0 °F /  20.6 °C 66.9 °F /  19.4 °C 29.93in /  1013.4hPa Calm     93% 0.00in /  0mm
01:19 68.8 °F /  20.4 °C 66.7 °F /  19.3 °C 29.93in /  1013.4hPa Calm     93% 0.00in /  0mm
01:24 68.6 °F /  20.3 °C 66.5 °F /  19.2 °C 29.93in /  1013.4hPa Calm     93% 0.00in /  0mm
01:29 68.4 °F /  20.2 °C 66.3 °F /  19.1 °C 29.93in /  1013.4hPa Calm     93% 0.00in /  0mm
01:34 68.5 °F /  20.3 °C 66.4 °F /  19.1 °C 29.93in /  1013.4hPa Calm     93% 0.00in /  0mm
01:39 68.6 °F /  20.3 °C 66.5 °F /  19.2 °C 29.92in /  1013.1hPa Calm     93% 0.00in /  0mm
01:44 68.6 °F /  20.3 °C 66.5 °F /  19.2 °C 29.93in /  1013.4hPa SE 1.0mph /  1.6km/h 1.0mph /  1.6km/h 93% 0.00in /  0mm
02:58 67.7 °F /  19.8 °C 65.6 °F /  18.7 °C 29.90in /  1012.4hPa SE 3.0mph /  4.8km/h 4.0mph /  6.4km/h 93% 0.00in /  0mm
02:59 67.8 °F /  19.9 °C 65.7 °F /  18.7 °C 29.90in /  1012.4hPa South 3.0mph /  4.8km/h 4.0mph /  6.4km/h 93% 0.00in /  0mm
03:04 67.9 °F /  19.9 °C 65.8 °F /  18.8 °C 29.90in /  1012.4hPa South 2.0mph /  3.2km/h 4.0mph /  6.4km/h 93% 0.00in /  0mm
03:09 68.0 °F /  20 °C 65.9 °F /  18.8 °C 29.90in /  1012.4hPa South 3.0mph /  4.8km/h 4.0mph /  6.4km/h 93% 0.00in /  0mm
03:14 68.0 °F /  20 °C 65.9 °F /  18.8 °C 29.90in /  1012.4hPa SSW 2.0mph /  3.2km/h 4.0mph /  6.4km/h 93% 0.00in /  0mm
03:19 68.0 °F /  20 °C 65.9 °F /  18.8 °C 29.90in /  1012.4hPa SW 1.0mph /  1.6km/h 3.0mph /  4.8km/h 93% 0.00in /  0mm
03:24 68.0 °F /  20 °C 65.9 °F /  18.8 °C 29.90in /  1012.4hPa South 3.0mph /  4.8km/h 3.0mph /  4.8km/h 93% 0.00in /  0mm
03:29 68.0 °F /  20 °C 65.9 °F /  18.8 °C 29.90in /  1012.4hPa SSE 3.0mph /  4.8km/h 3.0mph /  4.8km/h 93% 0.00in /  0mm
03:34 67.9 °F /  19.9 °C 65.8 °F /  18.8 °C 29.90in /  1012.4hPa SSE 1.0mph /  1.6km/h 3.0mph /  4.8km/h 93% 0.00in /  0mm
03:39 67.7 °F /  19.8 °C 65.6 °F /  18.7 °C 29.90in /  1012.4hPa SSE 1.0mph /  1.6km/h 3.0mph /  4.8km/h 93% 0.00in /  0mm
03:45 67.6 °F /  19.8 °C 65.5 °F /  18.6 °C 29.89in /  1012.1hPa SSE 2.0mph /  3.2km/h 3.0mph /  4.8km/h 93% 0.00in /  0mm
03:50 67.4 °F /  19.7 °C 65.3 °F /  18.5 °C 29.89in /  1012.1hPa SSE 2.0mph /  3.2km/h 2.0mph /  3.2km/h 93% 0.00in /  0mm
03:55 67.2 °F /  19.6 °C 65.1 °F /  18.4 °C 29.89in /  1012.1hPa SSE 2.0mph /  3.2km/h 3.0mph /  4.8km/h 93% 0.00in /  0mm
04:00 67.0 °F /  19.4 °C 64.9 °F /  18.3 °C 29.89in /  1012.1hPa SE 3.0mph /  4.8km/h 3.0mph /  4.8km/h 93% 0.00in /  0mm
04:05 66.9 °F /  19.4 °C 64.8 °F /  18.2 °C 29.89in /  1012.1hPa SE 2.0mph /  3.2km/h 3.0mph /  4.8km/h 93% 0.00in /  0mm
04:10 66.9 °F /  19.4 °C 64.8 °F /  18.2 °C 29.89in /  1012.1hPa SSE 1.0mph /  1.6km/h 2.0mph /  3.2km/h 93% 0.00in /  0mm
04:15 66.9 °F /  19.4 °C 64.8 °F /  18.2 °C 29.89in /  1012.1hPa SE 1.0mph /  1.6km/h 2.0mph /  3.2km/h 93% 0.00in /  0mm
04:20 66.9 °F /  19.4 °C 64.8 °F /  18.2 °C 29.90in /  1012.4hPa Calm   1.0mph /  1.6km/h 93% 0.00in /  0mm
04:25 66.8 °F /  19.3 °C 64.7 °F /  18.2 °C 29.90in /  1012.4hPa Calm     93% 0.00in /  0mm
04:30 66.7 °F /  19.3 °C 64.6 °F /  18.1 °C 29.90in /  1012.4hPa Calm     93% 0.00in /  0mm
04:35 66.7 °F /  19.3 °C 64.6 °F /  18.1 °C 29.90in /  1012.4hPa Calm     93% 0.00in /  0mm
04:40 66.7 °F /  19.3 °C 64.6 °F /  18.1 °C 29.90in /  1012.4hPa Calm   1.0mph /  1.6km/h 93% 0.00in /  0mm
04:45 66.8 °F /  19.3 °C 64.7 °F /  18.2 °C 29.90in /  1012.4hPa Calm   1.0mph /  1.6km/h 93% 0.00in /  0mm
04:50 66.9 °F /  19.4 °C 64.8 °F /  18.2 °C 29.91in /  1012.8hPa Calm     93% 0.00in /  0mm
04:55 66.7 °F /  19.3 °C 64.6 °F /  18.1 °C 29.91in /  1012.8hPa Calm   1.0mph /  1.6km/h 93% 0.00in /  0mm
05:00 66.6 °F /  19.2 °C 64.5 °F /  18.1 °C 29.91in /  1012.8hPa Calm     93% 0.00in /  0mm
05:05 66.6 °F /  19.2 °C 64.5 °F /  18.1 °C 29.91in /  1012.8hPa ESE 1.0mph /  1.6km/h 1.0mph /  1.6km/h 93% 0.00in /  0mm
05:10 66.6 °F /  19.2 °C 64.5 °F /  18.1 °C 29.91in /  1012.8hPa SE 1.0mph /  1.6km/h 1.0mph /  1.6km/h 93% 0.00in /  0mm
05:15 66.5 °F /  19.2 °C 64.4 °F /  18 °C 29.90in /  1012.4hPa SE 1.0mph /  1.6km/h 1.0mph /  1.6km/h 93% 0.00in /  0mm
05:20 66.5 °F /  19.2 °C 64.4 °F /  18 °C 29.90in /  1012.4hPa SSE 1.0mph /  1.6km/h 2.0mph /  3.2km/h 93% 0.00in /  0mm
05:25 66.6 °F /  19.2 °C 64.5 °F /  18.1 °C 29.91in /  1012.8hPa SE 1.0mph /  1.6km/h 2.0mph /  3.2km/h 93% 0.00in /  0mm
05:30 66.7 °F /  19.3 °C 64.6 °F /  18.1 °C 29.91in /  1012.8hPa Calm   1.0mph /  1.6km/h 93% 0.00in /  0mm
05:35 66.6 °F /  19.2 °C 64.5 °F /  18.1 °C 29.91in /  1012.8hPa Calm     93% 0.00in /  0mm
05:40 66.6 °F /  19.2 °C 64.5 °F /  18.1 °C 29.92in /  1013.1hPa Calm     93% 0.00in /  0mm
05:45 66.5 °F /  19.2 °C 64.4 °F /  18 °C 29.92in /  1013.1hPa Calm   1.0mph /  1.6km/h 93% 0.00in /  0mm
05:50 66.2 °F /  19 °C 64.1 °F /  17.8 °C 29.93in /  1013.4hPa SE 1.0mph /  1.6km/h 1.0mph /  1.6km/h 93% 0.00in /  0mm
05:55 65.6 °F /  18.7 °C 63.5 °F /  17.5 °C 29.93in /  1013.4hPa SE 1.0mph /  1.6km/h 1.0mph /  1.6km/h 93% 0.00in /  0mm
06:00 65.5 °F /  18.6 °C 63.4 °F /  17.4 °C 29.93in /  1013.4hPa Calm   1.0mph /  1.6km/h 93% 0.00in /  0mm
06:05 65.5 °F /  18.6 °C 63.4 °F /  17.4 °C 29.93in /  1013.4hPa Calm     93% 0.00in /  0mm
06:10 65.6 °F /  18.7 °C 63.5 °F /  17.5 °C 29.93in /  1013.4hPa Calm     93% 0.00in /  0mm
06:15 65.7 °F /  18.7 °C 63.6 °F /  17.6 °C 29.94in /  1013.8hPa SSE 1.0mph /  1.6km/h 1.0mph /  1.6km/h 93% 0.00in /  0mm
06:20 65.9 °F /  18.8 °C 63.8 °F /  17.7 °C 29.94in /  1013.8hPa NNE 2.0mph /  3.2km/h 3.0mph /  4.8km/h 93% 0.00in /  0mm
06:25 65.9 °F /  18.8 °C 63.8 °F /  17.7 °C 29.94in /  1013.8hPa NNE 1.0mph /  1.6km/h 2.0mph /  3.2km/h 93% 0.00in /  0mm
06:30 66.0 °F /  18.9 °C 63.9 °F /  17.7 °C 29.93in /  1013.4hPa NNE 1.0mph /  1.6km/h 1.0mph /  1.6km/h 93% 0.00in /  0mm
06:35 66.1 °F /  18.9 °C 64.0 °F /  17.8 °C 29.93in /  1013.4hPa Calm     93% 0.00in /  0mm
06:41 65.9 °F /  18.8 °C 63.8 °F /  17.7 °C 29.93in /  1013.4hPa Calm     93% 0.00in /  0mm
06:46 65.6 °F /  18.7 °C 63.5 °F /  17.5 °C 29.93in /  1013.4hPa SSE 1.0mph /  1.6km/h 1.0mph /  1.6km/h 93% 0.00in /  0mm
06:51 65.3 °F /  18.5 °C 63.5 °F /  17.5 °C 29.94in /  1013.8hPa SSE 1.0mph /  1.6km/h 1.0mph /  1.6km/h 94% 0.00in /  0mm
06:56 65.1 °F /  18.4 °C 63.3 °F /  17.4 °C 29.94in /  1013.8hPa SSE 1.0mph /  1.6km/h 2.0mph /  3.2km/h 94% 0.00in /  0mm
07:01 65.0 °F /  18.3 °C 63.2 °F /  17.3 °C 29.94in /  1013.8hPa Calm   1.0mph /  1.6km/h 94% 0.00in /  0mm
07:06 65.1 °F /  18.4 °C 63.0 °F /  17.2 °C 29.94in /  1013.8hPa Calm     93% 0.00in /  0mm
07:11 65.5 °F /  18.6 °C 63.4 °F /  17.4 °C 29.94in /  1013.8hPa Calm   1.0mph /  1.6km/h 93% 0.00in /  0mm
07:16 65.6 °F /  18.7 °C 63.5 °F /  17.5 °C 29.94in /  1013.8hPa East 1.0mph /  1.6km/h 2.0mph /  3.2km/h 93% 0.00in /  0mm
07:21 65.7 °F /  18.7 °C 63.6 °F /  17.6 °C 29.94in /  1013.8hPa Calm     93% 0.00in /  0mm
07:26 65.4 °F /  18.6 °C 63.3 °F /  17.4 °C 29.94in /  1013.8hPa Calm     93% 0.00in /  0mm
07:31 65.3 °F /  18.5 °C 63.5 °F /  17.5 °C 29.94in /  1013.8hPa SE 1.0mph /  1.6km/h 1.0mph /  1.6km/h 94% 0.00in /  0mm
07:36 65.2 °F /  18.4 °C 63.4 °F /  17.4 °C 29.94in /  1013.8hPa Calm   1.0mph /  1.6km/h 94% 0.00in /  0mm
07:41 65.2 °F /  18.4 °C 63.4 °F /  17.4 °C 29.94in /  1013.8hPa Calm     94% 0.00in /  0mm
07:46 65.2 °F /  18.4 °C 63.4 °F /  17.4 °C 29.94in /  1013.8hPa Calm     94% 0.00in /  0mm
07:51 65.5 °F /  18.6 °C 63.4 °F /  17.4 °C 29.95in /  1014.1hPa Calm     93% 0.00in /  0mm
07:56 65.9 °F /  18.8 °C 63.8 °F /  17.7 °C 29.95in /  1014.1hPa Calm     93% 0.00in /  0mm
08:01 66.4 °F /  19.1 °C 64.3 °F /  17.9 °C 29.95in /  1014.1hPa Calm   1.0mph /  1.6km/h 93% 0.00in /  0mm
08:06 66.7 °F /  19.3 °C 64.6 °F /  18.1 °C 29.94in /  1013.8hPa SSW 1.0mph /  1.6km/h 2.0mph /  3.2km/h 93% 0.00in /  0mm
08:11 67.1 °F /  19.5 °C 65.0 °F /  18.3 °C 29.95in /  1014.1hPa Calm     93% 0.00in /  0mm
08:16 67.6 °F /  19.8 °C 65.5 °F /  18.6 °C 29.95in /  1014.1hPa Calm     93% 0.00in /  0mm
08:21 68.5 °F /  20.3 °C 66.4 °F /  19.1 °C 29.95in /  1014.1hPa South 1.0mph /  1.6km/h 1.0mph /  1.6km/h 93% 0.00in /  0mm
08:26 68.8 °F /  20.4 °C 66.7 °F /  19.3 °C 29.95in /  1014.1hPa SSE 2.0mph /  3.2km/h 4.0mph /  6.4km/h 93% 0.00in /  0mm
08:32 68.9 °F /  20.5 °C 66.8 °F /  19.3 °C 29.95in /  1014.1hPa Calm   3.0mph /  4.8km/h 93% 0.00in /  0mm
08:37 69.3 °F /  20.7 °C 67.2 °F /  19.6 °C 29.95in /  1014.1hPa SE 1.0mph /  1.6km/h 1.0mph /  1.6km/h 93% 0.00in /  0mm
08:42 69.7 °F /  20.9 °C 67.6 °F /  19.8 °C 29.95in /  1014.1hPa SSE 2.0mph /  3.2km/h 2.0mph /  3.2km/h 93% 0.00in /  0mm
08:47 70.4 °F /  21.3 °C 68.3 °F /  20.2 °C 29.95in /  1014.1hPa Calm   2.0mph /  3.2km/h 93% 0.00in /  0mm
08:52 71.2 °F /  21.8 °C 69.1 °F /  20.6 °C 29.96in /  1014.4hPa SSW 1.0mph /  1.6km/h 1.0mph /  1.6km/h 93% 0.00in /  0mm
08:57 71.5 °F /  21.9 °C 69.1 °F /  20.6 °C 29.96in /  1014.4hPa WSW 1.0mph /  1.6km/h 2.0mph /  3.2km/h 92% 0.00in /  0mm
09:02 71.6 °F /  22 °C 68.8 °F /  20.4 °C 29.96in /  1014.4hPa SW 2.0mph /  3.2km/h 3.0mph /  4.8km/h 91% 0.00in /  0mm
09:07 71.7 °F /  22.1 °C 68.6 °F /  20.3 °C 29.96in /  1014.4hPa SSW 3.0mph /  4.8km/h 5.0mph /  8km/h 90% 0.00in /  0mm
09:12 71.9 °F /  22.2 °C 68.8 °F /  20.4 °C 29.96in /  1014.4hPa SW 2.0mph /  3.2km/h 4.0mph /  6.4km/h 90% 0.00in /  0mm
09:17 72.1 °F /  22.3 °C 69.0 °F /  20.6 °C 29.96in /  1014.4hPa SW 2.0mph /  3.2km/h 3.0mph /  4.8km/h 90% 0.00in /  0mm
09:22 72.2 °F /  22.3 °C 69.1 °F /  20.6 °C 29.96in /  1014.4hPa SW 4.0mph /  6.4km/h 4.0mph /  6.4km/h 90% 0.00in /  0mm
09:27 72.4 °F /  22.4 °C 69.0 °F /  20.6 °C 29.96in /  1014.4hPa SW 3.0mph /  4.8km/h 3.0mph /  4.8km/h 89% 0.00in /  0mm
09:32 72.7 °F /  22.6 °C 69.6 °F /  20.9 °C 29.97in /  1014.8hPa SSW 4.0mph /  6.4km/h 4.0mph /  6.4km/h 90% 0.00in /  0mm
09:37 73.1 °F /  22.8 °C 69.3 °F /  20.7 °C 29.97in /  1014.8hPa WSW 3.0mph /  4.8km/h 6.0mph /  9.7km/h 88% 0.00in /  0mm
09:42 73.2 °F /  22.9 °C 69.4 °F /  20.8 °C 29.97in /  1014.8hPa WSW 1.0mph /  1.6km/h 5.0mph /  8km/h 88% 0.00in /  0mm
09:47 73.6 °F /  23.1 °C 69.8 °F /  21 °C 29.97in /  1014.8hPa WSW 3.0mph /  4.8km/h 4.0mph /  6.4km/h 88% 0.00in /  0mm
09:52 73.7 °F /  23.2 °C 69.9 °F /  21.1 °C 29.97in /  1014.8hPa WSW 3.0mph /  4.8km/h 3.0mph /  4.8km/h 88% 0.00in /  0mm
09:57 73.9 °F /  23.3 °C 69.8 °F /  21 °C 29.97in /  1014.8hPa SW 5.0mph /  8km/h 6.0mph /  9.7km/h 87% 0.00in /  0mm
10:02 73.9 °F /  23.3 °C 70.1 °F /  21.2 °C 29.98in /  1015.1hPa SW 3.0mph /  4.8km/h 4.0mph /  6.4km/h 88% 0.00in /  0mm
10:07 73.8 °F /  23.2 °C 69.7 °F /  20.9 °C 29.99in /  1015.5hPa North 4.0mph /  6.4km/h 10.0mph /  16.1km/h 87% 0.00in /  0mm
10:12 72.4 °F /  22.4 °C 68.0 °F /  20 °C 29.99in /  1015.5hPa ENE 9.0mph /  14.5km/h 12.0mph /  19.3km/h 86% 0.00in /  0mm
10:17 71.5 °F /  21.9 °C 67.8 °F /  19.9 °C 29.99in /  1015.5hPa East 4.0mph /  6.4km/h 8.0mph /  12.9km/h 88% 0.00in /  0mm
10:22 71.1 °F /  21.7 °C 67.7 °F /  19.8 °C 29.99in /  1015.5hPa NE 4.0mph /  6.4km/h 9.0mph /  14.5km/h 89% 0.00in /  0mm
10:27 70.8 °F /  21.6 °C 67.1 °F /  19.5 °C 29.99in /  1015.5hPa NE 4.0mph /  6.4km/h 8.0mph /  12.9km/h 88% 0.00in /  0mm
10:32 70.7 °F /  21.5 °C 67.0 °F /  19.4 °C 29.99in /  1015.5hPa ENE 2.0mph /  3.2km/h 7.0mph /  11.3km/h 88% 0.00in /  0mm
10:37 70.7 °F /  21.5 °C 67.0 °F /  19.4 °C 29.98in /  1015.1hPa East 4.0mph /  6.4km/h 5.0mph /  8km/h 88% 0.00in /  0mm
10:42 70.9 °F /  21.6 °C 67.2 °F /  19.6 °C 29.99in /  1015.5hPa ENE 2.0mph /  3.2km/h 5.0mph /  8km/h 88% 0.00in /  0mm
10:47 71.2 °F /  21.8 °C 66.8 °F /  19.3 °C 29.98in /  1015.1hPa East 3.0mph /  4.8km/h 7.0mph /  11.3km/h 86% 0.00in /  0mm
10:52 71.7 °F /  22.1 °C 67.6 °F /  19.8 °C 29.99in /  1015.5hPa NE 3.0mph /  4.8km/h 4.0mph /  6.4km/h 87% 0.00in /  0mm
10:57 72.0 °F /  22.2 °C 67.6 °F /  19.8 °C 29.99in /  1015.5hPa NNE 5.0mph /  8km/h 6.0mph /  9.7km/h 86% 0.00in /  0mm
11:02 71.8 °F /  22.1 °C 66.7 °F /  19.3 °C 29.99in /  1015.5hPa ENE 3.0mph /  4.8km/h 7.0mph /  11.3km/h 84% 0.00in /  0mm
11:07 71.4 °F /  21.9 °C 66.3 °F /  19.1 °C 29.99in /  1015.5hPa ENE 8.0mph /  12.9km/h 11.0mph /  17.7km/h 84% 0.00in /  0mm
11:12 71.1 °F /  21.7 °C 66.4 °F /  19.1 °C 30.00in /  1015.8hPa NNE 8.0mph /  12.9km/h 10.0mph /  16.1km/h 85% 0.00in /  0mm
11:17 70.9 °F /  21.6 °C 66.2 °F /  19 °C 30.00in /  1015.8hPa NE 7.0mph /  11.3km/h 11.0mph /  17.7km/h 85% 0.00in /  0mm
11:22 70.9 °F /  21.6 °C 66.2 °F /  19 °C 30.00in /  1015.8hPa NNE 4.0mph /  6.4km/h 8.0mph /  12.9km/h 85% 0.00in /  0mm
11:27 71.1 °F /  21.7 °C 66.7 °F /  19.3 °C 29.99in /  1015.5hPa NE 3.0mph /  4.8km/h 7.0mph /  11.3km/h 86% 0.00in /  0mm
11:32 71.5 °F /  21.9 °C 66.8 °F /  19.3 °C 29.99in /  1015.5hPa NE 6.0mph /  9.7km/h 6.0mph /  9.7km/h 85% 0.00in /  0mm
11:37 71.8 °F /  22.1 °C 67.1 °F /  19.5 °C 29.99in /  1015.5hPa NE 5.0mph /  8km/h 8.0mph /  12.9km/h 85% 0.00in /  0mm
11:42 72.4 °F /  22.4 °C 67.6 °F /  19.8 °C 29.99in /  1015.5hPa East 6.0mph /  9.7km/h 8.0mph /  12.9km/h 85% 0.00in /  0mm
11:48 72.9 °F /  22.7 °C 68.1 °F /  20.1 °C 29.99in /  1015.5hPa East 4.0mph /  6.4km/h 6.0mph /  9.7km/h 85% 0.00in /  0mm
11:53 73.5 °F /  23.1 °C 68.0 °F /  20 °C 29.98in /  1015.1hPa ESE 5.0mph /  8km/h 8.0mph /  12.9km/h 83% 0.00in /  0mm
11:58 74.4 °F /  23.6 °C 68.2 °F /  20.1 °C 29.98in /  1015.1hPa ENE 3.0mph /  4.8km/h 7.0mph /  11.3km/h 81% 0.00in /  0mm
12:03 74.7 °F /  23.7 °C 67.4 °F /  19.7 °C 29.98in /  1015.1hPa SE 3.0mph /  4.8km/h 8.0mph /  12.9km/h 78% 0.00in /  0mm
12:08 74.6 °F /  23.7 °C 67.3 °F /  19.6 °C 29.98in /  1015.1hPa ESE 4.0mph /  6.4km/h 4.0mph /  6.4km/h 78% 0.00in /  0mm
12:13 74.8 °F /  23.8 °C 67.5 °F /  19.7 °C 29.98in /  1015.1hPa SE 3.0mph /  4.8km/h 4.0mph /  6.4km/h 78% 0.00in /  0mm
12:18 75.3 °F /  24.1 °C 68.0 °F /  20 °C 29.97in /  1014.8hPa East 1.0mph /  1.6km/h 5.0mph /  8km/h 78% 0.00in /  0mm
12:23 76.0 °F /  24.4 °C 68.7 °F /  20.4 °C 29.97in /  1014.8hPa SSE 4.0mph /  6.4km/h 4.0mph /  6.4km/h 78% 0.00in /  0mm
12:28 76.8 °F /  24.9 °C 68.3 °F /  20.2 °C 29.96in /  1014.4hPa SE 4.0mph /  6.4km/h 7.0mph /  11.3km/h 75% 0.00in /  0mm
12:33 76.7 °F /  24.8 °C 68.9 °F /  20.5 °C 29.95in /  1014.1hPa SE 5.0mph /  8km/h 7.0mph /  11.3km/h 77% 0.00in /  0mm
12:38 76.8 °F /  24.9 °C 67.9 °F /  19.9 °C 29.95in /  1014.1hPa ESE 6.0mph /  9.7km/h 8.0mph /  12.9km/h 74% 0.00in /  0mm
12:43 76.8 °F /  24.9 °C 68.7 °F /  20.4 °C 29.94in /  1013.8hPa SSE 7.0mph /  11.3km/h 8.0mph /  12.9km/h 76% 0.00in /  0mm
12:48 76.9 °F /  24.9 °C 68.8 °F /  20.4 °C 29.93in /  1013.4hPa South 5.0mph /  8km/h 9.0mph /  14.5km/h 76% 0.00in /  0mm
12:53 77.2 °F /  25.1 °C 69.1 °F /  20.6 °C 29.92in /  1013.1hPa SSE 9.0mph /  14.5km/h 9.0mph /  14.5km/h 76% 0.00in /  0mm
12:58 77.5 °F /  25.3 °C 70.1 °F /  21.2 °C 29.92in /  1013.1hPa South 5.0mph /  8km/h 8.0mph /  12.9km/h 78% 0.00in /  0mm
13:03 77.9 °F /  25.5 °C 69.3 °F /  20.7 °C 29.92in /  1013.1hPa SSE 7.0mph /  11.3km/h 7.0mph /  11.3km/h 75% 0.00in /  0mm
13:08 77.9 °F /  25.5 °C 68.6 °F /  20.3 °C 29.92in /  1013.1hPa SE 3.0mph /  4.8km/h 8.0mph /  12.9km/h 73% 0.00in /  0mm
13:13 78.3 °F /  25.7 °C 69.7 °F /  20.9 °C 29.92in /  1013.1hPa South 3.0mph /  4.8km/h 8.0mph /  12.9km/h 75% 0.00in /  0mm
13:18 78.7 °F /  25.9 °C 69.3 °F /  20.7 °C 29.92in /  1013.1hPa SW 6.0mph /  9.7km/h 7.0mph /  11.3km/h 73% 0.00in /  0mm
13:23 79.1 °F /  26.2 °C 69.3 °F /  20.7 °C 29.92in /  1013.1hPa South 4.0mph /  6.4km/h 7.0mph /  11.3km/h 72% 0.00in /  0mm
13:28 79.9 °F /  26.6 °C 70.1 °F /  21.2 °C 29.91in /  1012.8hPa South 4.0mph /  6.4km/h 7.0mph /  11.3km/h 72% 0.00in /  0mm
13:33 80.4 °F /  26.9 °C 71.0 °F /  21.7 °C 29.91in /  1012.8hPa SSE 4.0mph /  6.4km/h 8.0mph /  12.9km/h 73% 0.00in /  0mm
13:38 80.6 °F /  27 °C 70.3 °F /  21.3 °C 29.91in /  1012.8hPa SSW 4.0mph /  6.4km/h 6.0mph /  9.7km/h 71% 0.00in /  0mm
13:43 80.9 °F /  27.2 °C 69.8 °F /  21 °C 29.91in /  1012.8hPa SSE 7.0mph /  11.3km/h 8.0mph /  12.9km/h 69% 0.00in /  0mm
13:48 80.9 °F /  27.2 °C 70.2 °F /  21.2 °C 29.91in /  1012.8hPa SSE 4.0mph /  6.4km/h 7.0mph /  11.3km/h 70% 0.00in /  0mm
13:53 81.0 °F /  27.2 °C 69.4 °F /  20.8 °C 29.91in /  1012.8hPa SW 3.0mph /  4.8km/h 6.0mph /  9.7km/h 68% 0.00in /  0mm
13:58 81.3 °F /  27.4 °C 69.7 °F /  20.9 °C 29.91in /  1012.8hPa SSE 4.0mph /  6.4km/h 6.0mph /  9.7km/h 68% 0.00in /  0mm
14:03 81.6 °F /  27.6 °C 70.0 °F /  21.1 °C 29.91in /  1012.8hPa SW 4.0mph /  6.4km/h 4.0mph /  6.4km/h 68% 0.00in /  0mm
14:08 81.7 °F /  27.6 °C 70.1 °F /  21.2 °C 29.91in /  1012.8hPa South 4.0mph /  6.4km/h 7.0mph /  11.3km/h 68% 0.00in /  0mm
14:13 81.9 °F /  27.7 °C 70.3 °F /  21.3 °C 29.90in /  1012.4hPa SW 5.0mph /  8km/h 6.0mph /  9.7km/h 68% 0.00in /  0mm
14:18 82.1 °F /  27.8 °C 70.5 °F /  21.4 °C 29.90in /  1012.4hPa SSE 5.0mph /  8km/h 6.0mph /  9.7km/h 68% 0.00in /  0mm
14:23 82.6 °F /  28.1 °C 70.5 °F /  21.4 °C 29.89in /  1012.1hPa South 1.0mph /  1.6km/h 8.0mph /  12.9km/h 67% 0.00in /  0mm
14:28 82.7 °F /  28.2 °C 70.6 °F /  21.4 °C 29.89in /  1012.1hPa SW 7.0mph /  11.3km/h 8.0mph /  12.9km/h 67% 0.00in /  0mm
14:33 82.5 °F /  28.1 °C 70.9 °F /  21.6 °C 29.89in /  1012.1hPa SW 3.0mph /  4.8km/h 6.0mph /  9.7km/h 68% 0.00in /  0mm
14:38 83.1 °F /  28.4 °C 71.4 °F /  21.9 °C 29.89in /  1012.1hPa SW 5.0mph /  8km/h 5.0mph /  8km/h 68% 0.00in /  0mm
14:43 83.1 °F /  28.4 °C 71.4 °F /  21.9 °C 29.89in /  1012.1hPa SSW 4.0mph /  6.4km/h 7.0mph /  11.3km/h 68% 0.00in /  0mm
14:49 83.6 °F /  28.7 °C 70.6 °F /  21.4 °C 29.88in /  1011.7hPa SSW 8.0mph /  12.9km/h 10.0mph /  16.1km/h 65% 0.00in /  0mm
14:54 83.4 °F /  28.6 °C 71.3 °F /  21.8 °C 29.88in /  1011.7hPa WSW 5.0mph /  8km/h 11.0mph /  17.7km/h 67% 0.00in /  0mm
14:59 83.6 °F /  28.7 °C 71.1 °F /  21.7 °C 29.88in /  1011.7hPa SSE 2.0mph /  3.2km/h 10.0mph /  16.1km/h 66% 0.00in /  0mm
15:04 83.6 °F /  28.7 °C 71.5 °F /  21.9 °C 29.87in /  1011.4hPa WSW 7.0mph /  11.3km/h 9.0mph /  14.5km/h 67% 0.00in /  0mm
15:09 83.8 °F /  28.8 °C 70.3 °F /  21.3 °C 29.87in /  1011.4hPa SW 8.0mph /  12.9km/h 12.0mph /  19.3km/h 64% 0.00in /  0mm
15:14 83.9 °F /  28.8 °C 72.2 °F /  22.3 °C 29.86in /  1011.1hPa SSW 6.0mph /  9.7km/h 11.0mph /  17.7km/h 68% 0.00in /  0mm
15:19 84.2 °F /  29 °C 71.6 °F /  22 °C 29.86in /  1011.1hPa WSW 9.0mph /  14.5km/h 11.0mph /  17.7km/h 66% 0.00in /  0mm
15:24 83.8 °F /  28.8 °C 70.8 °F /  21.6 °C 29.86in /  1011.1hPa WSW 7.0mph /  11.3km/h 12.0mph /  19.3km/h 65% 0.00in /  0mm
15:29 83.9 °F /  28.8 °C 71.3 °F /  21.8 °C 29.87in /  1011.4hPa SW 6.0mph /  9.7km/h 12.0mph /  19.3km/h 66% 0.00in /  0mm
15:34 83.8 °F /  28.8 °C 71.2 °F /  21.8 °C 29.87in /  1011.4hPa West 6.0mph /  9.7km/h 11.0mph /  17.7km/h 66% 0.00in /  0mm
15:39 83.9 °F /  28.8 °C 70.4 °F /  21.3 °C 29.88in /  1011.7hPa SSE 6.0mph /  9.7km/h 8.0mph /  12.9km/h 64% 0.00in /  0mm
15:44 84.4 °F /  29.1 °C 70.9 °F /  21.6 °C 29.88in /  1011.7hPa SSW 7.0mph /  11.3km/h 8.0mph /  12.9km/h 64% 0.00in /  0mm
15:49 84.6 °F /  29.2 °C 71.1 °F /  21.7 °C 29.88in /  1011.7hPa SW 5.0mph /  8km/h 8.0mph /  12.9km/h 64% 0.00in /  0mm
15:54 84.8 °F /  29.3 °C 71.7 °F /  22.1 °C 29.87in /  1011.4hPa WSW 7.0mph /  11.3km/h 7.0mph /  11.3km/h 65% 0.00in /  0mm
15:59 84.8 °F /  29.3 °C 71.3 °F /  21.8 °C 29.87in /  1011.4hPa SW 9.0mph /  14.5km/h 10.0mph /  16.1km/h 64% 0.00in /  0mm
16:04 84.5 °F /  29.2 °C 70.5 °F /  21.4 °C 29.87in /  1011.4hPa SW 5.0mph /  8km/h 9.0mph /  14.5km/h 63% 0.00in /  0mm
16:09 84.3 °F /  29.1 °C 70.3 °F /  21.3 °C 29.87in /  1011.4hPa SE 3.0mph /  4.8km/h 8.0mph /  12.9km/h 63% 0.00in /  0mm
16:14 84.1 °F /  28.9 °C 71.1 °F /  21.7 °C 29.87in /  1011.4hPa SSW 4.0mph /  6.4km/h 8.0mph /  12.9km/h 65% 0.00in /  0mm
16:19 84.1 °F /  28.9 °C 70.6 °F /  21.4 °C 29.87in /  1011.4hPa SSE 4.0mph /  6.4km/h 9.0mph /  14.5km/h 64% 0.00in /  0mm
16:24 84.2 °F /  29 °C 71.6 °F /  22 °C 29.87in /  1011.4hPa SSW 3.0mph /  4.8km/h 9.0mph /  14.5km/h 66% 0.00in /  0mm
16:30 84.3 °F /  29.1 °C 70.8 °F /  21.6 °C 29.87in /  1011.4hPa SW 5.0mph /  8km/h 8.0mph /  12.9km/h 64% 0.00in /  0mm
16:35 84.1 °F /  28.9 °C 71.5 °F /  21.9 °C 29.87in /  1011.4hPa Calm   5.0mph /  8km/h 66% 0.00in /  0mm
16:40 83.8 °F /  28.8 °C 71.2 °F /  21.8 °C 29.87in /  1011.4hPa SW 4.0mph /  6.4km/h 6.0mph /  9.7km/h 66% 0.00in /  0mm
16:45 83.5 °F /  28.6 °C 70.9 °F /  21.6 °C 29.87in /  1011.4hPa WSW 2.0mph /  3.2km/h 3.0mph /  4.8km/h 66% 0.00in /  0mm
16:50 83.6 °F /  28.7 °C 71.9 °F /  22.2 °C 29.87in /  1011.4hPa South 5.0mph /  8km/h 6.0mph /  9.7km/h 68% 0.00in /  0mm
16:55 83.8 °F /  28.8 °C 71.2 °F /  21.8 °C 29.87in /  1011.4hPa WSW 3.0mph /  4.8km/h 4.0mph /  6.4km/h 66% 0.00in /  0mm
17:01 83.9 °F /  28.8 °C 72.2 °F /  22.3 °C 29.87in /  1011.4hPa SW 4.0mph /  6.4km/h 5.0mph /  8km/h 68% 0.00in /  0mm
17:06 84.2 °F /  29 °C 72.1 °F /  22.3 °C 29.87in /  1011.4hPa SSW 1.0mph /  1.6km/h 4.0mph /  6.4km/h 67% 0.00in /  0mm
17:11 84.5 °F /  29.2 °C 71.4 °F /  21.9 °C 29.87in /  1011.4hPa Calm   2.0mph /  3.2km/h 65% 0.00in /  0mm
17:16 84.9 °F /  29.4 °C 71.8 °F /  22.1 °C 29.87in /  1011.4hPa WNW 2.0mph /  3.2km/h 3.0mph /  4.8km/h 65% 0.00in /  0mm
17:21 84.9 °F /  29.4 °C 72.7 °F /  22.6 °C 29.87in /  1011.4hPa NW 3.0mph /  4.8km/h 3.0mph /  4.8km/h 67% 0.00in /  0mm
17:26 84.5 °F /  29.2 °C 71.4 °F /  21.9 °C 29.86in /  1011.1hPa Calm   4.0mph /  6.4km/h 65% 0.00in /  0mm
17:31 84.2 °F /  29 °C 72.1 °F /  22.3 °C 29.86in /  1011.1hPa NW 3.0mph /  4.8km/h 3.0mph /  4.8km/h 67% 0.00in /  0mm
17:36 84.1 °F /  28.9 °C 72.4 °F /  22.4 °C 29.86in /  1011.1hPa NNW 2.0mph /  3.2km/h 3.0mph /  4.8km/h 68% 0.00in /  0mm
17:41 84.5 °F /  29.2 °C 72.8 °F /  22.7 °C 29.86in /  1011.1hPa NW 1.0mph /  1.6km/h 2.0mph /  3.2km/h 68% 0.00in /  0mm
17:46 84.9 °F /  29.4 °C 72.7 °F /  22.6 °C 29.86in /  1011.1hPa WNW 2.0mph /  3.2km/h 2.0mph /  3.2km/h 67% 0.00in /  0mm
17:51 85.4 °F /  29.7 °C 72.3 °F /  22.4 °C 29.86in /  1011.1hPa SE 2.0mph /  3.2km/h 3.0mph /  4.8km/h 65% 0.00in /  0mm
17:56 85.1 °F /  29.5 °C 71.6 °F /  22 °C 29.86in /  1011.1hPa SE 2.0mph /  3.2km/h 5.0mph /  8km/h 64% 0.00in /  0mm
18:01 85.2 °F /  29.6 °C 71.7 °F /  22.1 °C 29.86in /  1011.1hPa SSW 2.0mph /  3.2km/h 4.0mph /  6.4km/h 64% 0.00in /  0mm
18:06 85.5 °F /  29.7 °C 71.9 °F /  22.2 °C 29.86in /  1011.1hPa SW 2.0mph /  3.2km/h 2.0mph /  3.2km/h 64% 0.00in /  0mm
18:11 85.8 °F /  29.9 °C 72.7 °F /  22.6 °C 29.86in /  1011.1hPa SSW 2.0mph /  3.2km/h 3.0mph /  4.8km/h 65% 0.00in /  0mm
18:16 85.4 °F /  29.7 °C 71.8 °F /  22.1 °C 29.86in /  1011.1hPa SW 4.0mph /  6.4km/h 5.0mph /  8km/h 64% 0.00in /  0mm
18:21 85.0 °F /  29.4 °C 71.9 °F /  22.2 °C 29.86in /  1011.1hPa SW 4.0mph /  6.4km/h 5.0mph /  8km/h 65% 0.00in /  0mm
18:26 84.6 °F /  29.2 °C 72.0 °F /  22.2 °C 29.86in /  1011.1hPa SSW 2.0mph /  3.2km/h 4.0mph /  6.4km/h 66% 0.00in /  0mm
18:31 84.4 °F /  29.1 °C 72.7 °F /  22.6 °C 29.86in /  1011.1hPa SW 5.0mph /  8km/h 5.0mph /  8km/h 68% 0.00in /  0mm
18:36 83.8 °F /  28.8 °C 72.1 °F /  22.3 °C 29.86in /  1011.1hPa WSW 2.0mph /  3.2km/h 3.0mph /  4.8km/h 68% 0.00in /  0mm
18:41 83.5 °F /  28.6 °C 71.8 °F /  22.1 °C 29.85in /  1010.7hPa WSW 1.0mph /  1.6km/h 3.0mph /  4.8km/h 68% 0.00in /  0mm
18:46 83.3 °F /  28.5 °C 71.6 °F /  22 °C 29.86in /  1011.1hPa SW 2.0mph /  3.2km/h 2.0mph /  3.2km/h 68% 0.00in /  0mm
18:51 83.2 °F /  28.4 °C 72.0 °F /  22.2 °C 29.85in /  1010.7hPa WSW 1.0mph /  1.6km/h 2.0mph /  3.2km/h 69% 0.00in /  0mm
18:56 83.0 °F /  28.3 °C 72.2 °F /  22.3 °C 29.85in /  1010.7hPa WSW 1.0mph /  1.6km/h 2.0mph /  3.2km/h 70% 0.00in /  0mm
19:01 83.0 °F /  28.3 °C 72.2 °F /  22.3 °C 29.86in /  1011.1hPa WSW 1.0mph /  1.6km/h 2.0mph /  3.2km/h 70% 0.00in /  0mm
19:06 82.8 °F /  28.2 °C 72.0 °F /  22.2 °C 29.86in /  1011.1hPa WSW 1.0mph /  1.6km/h 2.0mph /  3.2km/h 70% 0.00in /  0mm
19:11 82.7 °F /  28.2 °C 72.3 °F /  22.4 °C 29.85in /  1010.7hPa SW 1.0mph /  1.6km/h 1.0mph /  1.6km/h 71% 0.00in /  0mm
19:16 82.7 °F /  28.2 °C 72.8 °F /  22.7 °C 29.85in /  1010.7hPa Calm     72% 0.00in /  0mm
19:21 82.7 °F /  28.2 °C 72.3 °F /  22.4 °C 29.85in /  1010.7hPa Calm     71% 0.00in /  0mm
19:26 82.5 °F /  28.1 °C 72.2 °F /  22.3 °C 29.86in /  1011.1hPa Calm     71% 0.00in /  0mm
19:31 82.5 °F /  28.1 °C 72.6 °F /  22.6 °C 29.86in /  1011.1hPa Calm     72% 0.00in /  0mm
19:36 82.2 °F /  27.9 °C 73.9 °F /  23.3 °C 29.86in /  1011.1hPa Calm   1.0mph /  1.6km/h 76% 0.00in /  0mm
19:42 81.6 °F /  27.6 °C 73.3 °F /  22.9 °C 29.86in /  1011.1hPa Calm     76% 0.00in /  0mm
19:47 81.0 °F /  27.2 °C 73.5 °F /  23.1 °C 29.86in /  1011.1hPa SW 1.0mph /  1.6km/h 1.0mph /  1.6km/h 78% 0.00in /  0mm
19:52 80.6 °F /  27 °C 73.1 °F /  22.8 °C 29.86in /  1011.1hPa Calm   1.0mph /  1.6km/h 78% 0.00in /  0mm
19:53 80.6 °F /  27 °C 73.1 °F /  22.8 °C 29.86in /  1011.1hPa Calm   1.0mph /  1.6km/h 78% 0.00in /  0mm
19:58 80.2 °F /  26.8 °C 73.5 °F /  23.1 °C 29.86in /  1011.1hPa Calm   1.0mph /  1.6km/h 80% 0.00in /  0mm
20:03 79.7 °F /  26.5 °C 73.7 °F /  23.2 °C 29.86in /  1011.1hPa Calm     82% 0.00in /  0mm
20:08 79.0 °F /  26.1 °C 73.0 °F /  22.8 °C 29.86in /  1011.1hPa SE 1.0mph /  1.6km/h 1.0mph /  1.6km/h 82% 0.00in /  0mm
20:13 78.6 °F /  25.9 °C 72.7 °F /  22.6 °C 29.86in /  1011.1hPa Calm   1.0mph /  1.6km/h 82% 0.00in /  0mm
20:18 78.6 °F /  25.9 °C 72.7 °F /  22.6 °C 29.86in /  1011.1hPa Calm     82% 0.00in /  0mm
20:24 78.7 °F /  25.9 °C 73.1 °F /  22.8 °C 29.86in /  1011.1hPa ESE 1.0mph /  1.6km/h 1.0mph /  1.6km/h 83% 0.00in /  0mm
20:29 78.8 °F /  26 °C 73.2 °F /  22.9 °C 29.86in /  1011.1hPa ESE 1.0mph /  1.6km/h 1.0mph /  1.6km/h 83% 0.00in /  0mm
20:34 78.8 °F /  26 °C 73.2 °F /  22.9 °C 29.86in /  1011.1hPa ESE 1.0mph /  1.6km/h 1.0mph /  1.6km/h 83% 0.00in /  0mm
20:39 78.6 °F /  25.9 °C 73.0 °F /  22.8 °C 29.86in /  1011.1hPa ESE 1.0mph /  1.6km/h 1.0mph /  1.6km/h 83% 0.00in /  0mm
20:44 78.5 °F /  25.8 °C 72.6 °F /  22.6 °C 29.86in /  1011.1hPa Calm   1.0mph /  1.6km/h 82% 0.00in /  0mm
20:49 78.2 °F /  25.7 °C 72.6 °F /  22.6 °C 29.87in /  1011.4hPa Calm     83% 0.00in /  0mm
20:54 77.7 °F /  25.4 °C 72.1 °F /  22.3 °C 29.87in /  1011.4hPa Calm     83% 0.00in /  0mm
20:59 77.4 °F /  25.2 °C 72.5 °F /  22.5 °C 29.87in /  1011.4hPa Calm     85% 0.00in /  0mm
21:04 76.8 °F /  24.9 °C 72.3 °F /  22.4 °C 29.87in /  1011.4hPa Calm     86% 0.00in /  0mm
21:09 76.3 °F /  24.6 °C 71.8 °F /  22.1 °C 29.87in /  1011.4hPa Calm     86% 0.00in /  0mm
21:14 76.3 °F /  24.6 °C 71.8 °F /  22.1 °C 29.87in /  1011.4hPa Calm   1.0mph /  1.6km/h 86% 0.00in /  0mm
21:19 76.2 °F /  24.6 °C 71.7 °F /  22.1 °C 29.87in /  1011.4hPa Calm     86% 0.00in /  0mm
21:24 76.0 °F /  24.4 °C 71.5 °F /  21.9 °C 29.87in /  1011.4hPa ESE 1.0mph /  1.6km/h 1.0mph /  1.6km/h 86% 0.00in /  0mm
21:29 76.1 °F /  24.5 °C 71.3 °F /  21.8 °C 29.87in /  1011.4hPa East 1.0mph /  1.6km/h 2.0mph /  3.2km/h 85% 0.00in /  0mm
21:34 76.6 °F /  24.8 °C 71.4 °F /  21.9 °C 29.87in /  1011.4hPa Calm   1.0mph /  1.6km/h 84% 0.00in /  0mm
21:39 76.7 °F /  24.8 °C 71.2 °F /  21.8 °C 29.87in /  1011.4hPa Calm     83% 0.00in /  0mm
21:44 76.6 °F /  24.8 °C 71.1 °F /  21.7 °C 29.87in /  1011.4hPa East 1.0mph /  1.6km/h 1.0mph /  1.6km/h 83% 0.00in /  0mm
21:49 76.2 °F /  24.6 °C 71.0 °F /  21.7 °C 29.87in /  1011.4hPa Calm     84% 0.00in /  0mm
21:54 75.5 °F /  24.2 °C 70.7 °F /  21.5 °C 29.88in /  1011.7hPa Calm     85% 0.00in /  0mm
21:59 75.1 °F /  23.9 °C 70.6 °F /  21.4 °C 29.88in /  1011.7hPa Calm     86% 0.00in /  0mm
22:04 74.8 °F /  23.8 °C 70.7 °F /  21.5 °C 29.88in /  1011.7hPa Calm     87% 0.00in /  0mm
22:09 74.2 °F /  23.4 °C 70.4 °F /  21.3 °C 29.88in /  1011.7hPa Calm   1.0mph /  1.6km/h 88% 0.00in /  0mm
22:14 73.8 °F /  23.2 °C 70.4 °F /  21.3 °C 29.88in /  1011.7hPa Calm     89% 0.00in /  0mm
22:19 73.6 °F /  23.1 °C 70.2 °F /  21.2 °C 29.89in /  1012.1hPa Calm     89% 0.00in /  0mm
22:24 73.4 °F /  23 °C 70.0 °F /  21.1 °C 29.89in /  1012.1hPa East 1.0mph /  1.6km/h 1.0mph /  1.6km/h 89% 0.00in /  0mm
22:29 73.4 °F /  23 °C 70.3 °F /  21.3 °C 29.89in /  1012.1hPa Calm   1.0mph /  1.6km/h 90% 0.00in /  0mm
22:34 73.2 °F /  22.9 °C 70.4 °F /  21.3 °C 29.89in /  1012.1hPa Calm     91% 0.00in /  0mm
22:40 73.1 °F /  22.8 °C 70.3 °F /  21.3 °C 29.89in /  1012.1hPa Calm     91% 0.00in /  0mm
22:45 73.1 °F /  22.8 °C 70.3 °F /  21.3 °C 29.89in /  1012.1hPa Calm     91% 0.00in /  0mm
22:50 73.1 °F /  22.8 °C 70.3 °F /  21.3 °C 29.90in /  1012.4hPa Calm     91% 0.00in /  0mm
22:55 73.0 °F /  22.8 °C 70.2 °F /  21.2 °C 29.90in /  1012.4hPa Calm     91% 0.00in /  0mm
23:00 73.0 °F /  22.8 °C 70.2 °F /  21.2 °C 29.90in /  1012.4hPa Calm     91% 0.00in /  0mm
23:05 72.9 °F /  22.7 °C 70.1 °F /  21.2 °C 29.90in /  1012.4hPa Calm     91% 0.00in /  0mm
23:10 72.7 °F /  22.6 °C 69.9 °F /  21.1 °C 29.90in /  1012.4hPa Calm     91% 0.00in /  0mm
23:15 72.6 °F /  22.6 °C 69.8 °F /  21 °C 29.90in /  1012.4hPa Calm     91% 0.00in /  0mm
23:20 72.4 °F /  22.4 °C 69.6 °F /  20.9 °C 29.90in /  1012.4hPa Calm     91% 0.00in /  0mm
23:25 72.4 °F /  22.4 °C 69.6 °F /  20.9 °C 29.90in /  1012.4hPa NNE 1.0mph /  1.6km/h 1.0mph /  1.6km/h 91% 0.00in /  0mm
23:30 72.6 °F /  22.6 °C 69.8 °F /  21 °C 29.90in /  1012.4hPa Calm     91% 0.00in /  0mm
23:35 72.3 °F /  22.4 °C 69.2 °F /  20.7 °C 29.90in /  1012.4hPa Calm     90% 0.00in /  0mm
23:40 72.3 °F /  22.4 °C 69.5 °F /  20.8 °C 29.90in /  1012.4hPa Calm     91% 0.00in /  0mm
23:45 72.1 °F /  22.3 °C 69.3 °F /  20.7 °C 29.90in /  1012.4hPa Calm     91% 0.00in /  0mm
23:50 71.9 °F /  22.2 °C 69.1 °F /  20.6 °C 29.90in /  1012.4hPa Calm     91% 0.00in /  0mm
23:55 71.7 °F /  22.1 °C 68.9 °F /  20.5 °C 29.90in /  1012.4hPa Calm     91% 0.00in /  0mm
Compliments of Weather Underground